Time;durP1;ratioP1;P1;durP2;ratioP2;P2;SDS_P1;SDS_P2;PMS_P1;PMS_P2;Temp;Humidity;BMP_temperature;BMP_pressure;BME280_temperature;BME280_humidity;BME280_pressure;Samples;Min_cycle;Max_cycle;Signal;HPM_P1;HPM_P2
2022/01/26 00:00:43;;;;;;;118.63;43.95;;;3.60;99.90;;;;;;5072325;28;20425;-77
2022/01/26 00:07:59;;;;;;;121.15;44.13;;;;;;;;;;5075922;28;20416;-77
2022/01/26 00:10:26;;;;;;;112.07;42.97;;;;;;;;;;5059422;28;20411;-77
2022/01/26 00:12:52;;;;;;;112.53;42.83;;;;;;;;;;5073285;28;20419;-77
2022/01/26 00:15:18;;;;;;;115.75;41.90;;;;;;;;;;5058231;28;20420;-77
2022/01/26 00:17:52;;;;;;;119.73;42.93;;;;;;;;;;5074424;28;20430;-76
2022/01/26 00:41:04;;;;;;;119.00;42.30;;;;;;;;;;5077480;28;20949;-77
2022/01/26 00:43:31;;;;;;;122.60;43.70;;;;;;;;;;5077567;28;20408;-76
2022/01/26 00:45:59;;;;;;;119.03;42.20;;;;;;;;;;5078025;28;20427;-76
2022/01/26 00:48:27;;;;;;;122.78;42.75;;;3.30;99.90;;;;;;5070394;28;20432;-77
2022/01/26 00:50:54;;;;;;;114.83;42.10;;;;;;;;;;5057105;28;20463;-76
2022/01/26 00:53:24;;;;;;;114.00;42.13;;;;;;;;;;5060659;28;20466;-77
2022/01/26 00:55:51;;;;;;;114.68;42.78;;;;;;;;;;5078254;28;20431;-77
2022/01/26 00:58:17;;;;;;;114.95;42.00;;;;;;;;;;5078064;28;20432;-77
2022/01/26 01:00:43;;;;;;;120.28;42.25;;;;;;;;;;5057249;28;20867;-77
2022/01/26 01:03:09;;;;;;;119.40;42.75;;;;;;;;;;5050444;28;20433;-76
2022/01/26 01:05:42;;;;;;;120.78;42.53;;;;;;;;;;5061727;28;20423;-77
2022/01/26 01:08:14;;;;;;;117.65;42.35;;;;;;;;;;5057788;28;20455;-77
2022/01/26 01:10:41;;;;;;;116.50;42.60;;;;;;;;;;5054322;28;20419;-76
2022/01/26 01:13:14;;;;;;;128.15;43.40;;;;;;;;;;5076694;28;20815;-76
2022/01/26 01:15:40;;;;;;;118.30;42.70;;;;;;;;;;5075081;28;20455;-77
2022/01/26 01:18:13;;;;;;;127.63;43.65;;;;;;;;;;5075360;28;20422;-77
2022/01/26 01:31:39;;;;;;;122.97;43.75;;;;;;;;;;5080789;28;20430;-76
2022/01/26 01:34:04;;;;;;;112.65;42.17;;;;;;;;;;5055323;28;20427;-77
2022/01/26 01:36:32;;;;;;;123.88;42.65;;;;;;;;;;5076745;28;20471;-76
2022/01/26 01:38:58;;;;;;;121.85;42.30;;;;;;;;;;5060620;28;20950;-77
2022/01/26 01:41:24;;;;;;;124.00;42.92;;;;;;;;;;5061199;28;20514;-77
2022/01/26 01:43:50;;;;;;;126.33;43.13;;;;;;;;;;5043222;28;20415;-77
2022/01/26 01:46:16;;;;;;;124.82;43.53;;;;;;;;;;5076399;28;20423;-77
2022/01/26 01:48:43;;;;;;;123.07;42.25;;;;;;;;;;5041660;28;20413;-77
2022/01/26 01:51:12;;;;;;;123.00;42.67;;;;;;;;;;5060364;28;20442;-77
2022/01/26 01:53:41;;;;;;;123.00;43.45;;;;;;;;;;5077543;28;20416;-76
2022/01/26 01:56:08;;;;;;;121.35;41.90;;;;;;;;;;5060061;28;20420;-77
2022/01/26 01:58:34;;;;;;;119.78;41.00;;;;;;;;;;5078386;28;20424;-77
2022/01/26 02:01:01;;;;;;;126.60;43.42;;;;;;;;;;5075556;28;20411;-76
2022/01/26 02:03:27;;;;;;;126.95;43.50;;;;;;;;;;5077501;28;20493;-77
2022/01/26 02:05:53;;;;;;;130.30;44.70;;;;;;;;;;5043495;28;20428;-76
2022/01/26 02:08:20;;;;;;;122.65;42.78;;;;;;;;;;5076703;28;20483;-77
2022/01/26 02:10:46;;;;;;;131.23;43.73;;;;;;;;;;5077459;28;20522;-76
2022/01/26 02:13:24;;;;;;;122.47;43.67;;;;;;;;;;5037306;28;20428;-77
2022/01/26 02:15:59;;;;;;;126.20;43.17;;;;;;;;;;5057904;28;20447;-77
2022/01/26 02:19:05;;;;;;;121.13;42.70;;;;;;;;;;5053322;28;20455;-76
2022/01/26 02:54:54;;;;;;;110.47;40.78;;;;;;;;;;5075578;28;20420;-77
2022/01/26 03:00:33;;;;;;;109.95;40.58;;;;;;;;;;5033632;28;20867;-77
2022/01/26 03:03:11;;;;;;;101.93;39.28;;;;;;;;;;5053840;28;20525;-76
2022/01/26 03:05:46;;;;;;;104.90;39.25;;;;;;;;;;5057605;28;20434;-77
2022/01/26 03:08:12;;;;;;;103.57;38.78;;;;;;;;;;5076779;28;20419;-77
2022/01/26 03:10:52;;;;;;;107.43;40.15;;;;;;;;;;5075621;28;20454;-77
2022/01/26 03:13:24;;;;;;;96.93;36.70;;;;;;;;;;5056321;28;20811;-77
2022/01/26 03:15:56;;;;;;;95.97;36.38;;;;;;;;;;5069092;28;20423;-77
2022/01/26 03:21:58;;;;;;;92.83;35.63;;;;;;;;;;4995442;28;20539;-77
2022/01/26 03:29:53;;;;;;;86.57;35.45;;;;;;;;;;5065664;28;20388;-77
2022/01/26 03:34:52;;;;;;;86.23;35.33;;;;;;;;;;5074527;28;20420;-77
2022/01/26 03:37:21;;;;;;;88.65;36.13;;;;;;;;;;5057225;28;20442;-77
2022/01/26 03:39:50;;;;;;;85.78;35.53;;;;;;;;;;5059309;28;20424;-76
2022/01/26 03:42:16;;;;;;;81.10;34.88;;;;;;;;;;5075131;28;20438;-77
2022/01/26 03:44:43;;;;;;;83.03;34.65;;;;;;;;;;5058378;28;20459;-77
2022/01/26 03:47:09;;;;;;;89.70;36.72;;;;;;;;;;5074473;28;20420;-77
2022/01/26 03:49:36;;;;;;;86.63;35.53;;;;;;;;;;5052361;28;20443;-77
2022/01/26 03:52:05;;;;;;;83.57;34.55;;;;;;;;;;5073610;28;20415;-77
2022/01/26 03:54:32;;;;;;;87.15;36.00;;;;;;;;;;5057110;28;20729;-77
2022/01/26 03:56:58;;;;;;;78.55;33.85;;;;;;;;;;5076677;28;20427;-77
2022/01/26 03:59:24;;;;;;;84.23;34.90;;;;;;;;;;5062845;28;20999;-77
2022/01/26 04:01:50;;;;;;;87.82;35.85;;;;;;;;;;5078743;28;20434;-77
2022/01/26 04:04:16;;;;;;;83.85;34.78;;;;;;;;;;5077612;28;20518;-77
2022/01/26 04:06:42;;;;;;;78.00;35.15;;;;;;;;;;5078326;28;20447;-77
2022/01/26 04:09:10;;;;;;;75.33;34.17;;;;;;;;;;5076383;28;20506;-77
2022/01/26 04:11:42;;;;;;;79.78;33.33;;;;;;;;;;5062332;28;20411;-77
2022/01/26 04:14:11;;;;;;;80.50;33.10;;;;;;;;;;5078848;28;20422;-76
2022/01/26 04:16:39;;;;;;;77.25;33.72;;;3.70;99.90;;;;;;5061472;28;21074;-78
2022/01/26 04:19:06;;;;;;;80.78;33.38;;;;;;;;;;5064709;28;20475;-77
2022/01/26 04:24:21;;;;;;;79.45;32.83;;;;;;;;;;5077306;28;20451;-77
2022/01/26 04:27:00;;;;;;;75.85;33.15;;;;;;;;;;5079633;28;20450;-77
2022/01/26 04:29:30;;;;;;;75.07;32.42;;;;;;;;;;5076826;28;20439;-77
2022/01/26 04:31:57;;;;;;;79.88;32.25;;;3.40;99.90;;;;;;5045198;28;20501;-78
2022/01/26 04:34:23;;;;;;;76.80;32.80;;;;;;;;;;5058606;28;20444;-78
2022/01/26 04:36:58;;;;;;;72.15;31.83;;;;;;;;;;5060295;28;20423;-77
2022/01/26 04:39:30;;;;;;;77.68;31.83;;;;;;;;;;5078943;28;20872;-77
2022/01/26 04:42:11;;;;;;;72.97;31.42;;;;;;;;;;5077230;28;20423;-78
2022/01/26 04:44:44;;;;;;;73.35;31.95;;;;;;;;;;5073363;28;20957;-77
2022/01/26 04:47:10;;;;;;;73.75;31.85;;;;;;;;;;5045387;28;20468;-77
2022/01/26 04:49:36;;;;;;;72.05;30.83;;;;;;;;;;5076785;28;20427;-77
2022/01/26 04:52:03;;;;;;;75.57;31.73;;;;;;;;;;5076818;28;20438;-76
2022/01/26 04:54:29;;;;;;;75.13;30.73;;;;;;;;;;5060686;28;20427;-77
2022/01/26 04:56:55;;;;;;;72.90;29.48;;;;;;;;;;5077060;28;20454;-77
2022/01/26 04:59:21;;;;;;;76.80;30.95;;;;;;;;;;5077257;28;20431;-77
2022/01/26 05:01:47;;;;;;;72.15;30.23;;;;;;;;;;5060731;28;20504;-78
2022/01/26 05:04:13;;;;;;;76.90;30.98;;;;;;;;;;5076009;28;20942;-78
2022/01/26 05:06:39;;;;;;;76.85;30.27;;;;;;;;;;5077074;28;20524;-77
2022/01/26 05:09:05;;;;;;;73.00;30.25;;;;;;;;;;5043443;28;20422;-76
2022/01/26 05:11:36;;;;;;;77.65;32.08;;;;;;;;;;5045555;28;20431;-77
2022/01/26 05:14:02;;;;;;;71.55;29.67;;;;;;;;;;5076721;28;20418;-77
2022/01/26 05:16:28;;;;;;;76.47;31.60;;;;;;;;;;5060263;28;20552;-77
2022/01/26 05:18:55;;;;;;;72.45;30.00;;;;;;;;;;5076818;28;20442;-78
2022/01/26 05:21:22;;;;;;;71.35;30.30;;;;;;;;;;5076699;28;20461;-77
2022/01/26 05:23:48;;;;;;;72.32;31.17;;;;;;;;;;5045269;28;20426;-76
2022/01/26 05:26:14;;;;;;;72.38;30.55;;;;;;;;;;5059364;28;20431;-77
2022/01/26 05:28:40;;;;;;;71.00;29.85;;;;;;;;;;5078910;28;20415;-78
2022/01/26 05:31:07;;;;;;;74.07;30.40;;;;;;;;;;5059810;28;20423;-77
2022/01/26 05:33:33;;;;;;;68.70;29.10;;;;;;;;;;5075946;28;20430;-77
2022/01/26 05:35:59;;;;;;;71.35;29.20;;;;;;;;;;5060424;28;20419;-77
2022/01/26 05:38:25;;;;;;;71.18;30.75;;;;;;;;;;5075307;28;20461;-77
2022/01/26 05:40:51;;;;;;;71.60;30.13;;;;;;;;;;5077832;28;20434;-77
2022/01/26 05:43:17;;;;;;;75.13;31.02;;;;;;;;;;5041926;28;20616;-78
2022/01/26 05:45:48;;;;;;;70.07;29.77;;;3.10;99.90;;;;;;5061156;28;20853;-78
2022/01/26 05:48:14;;;;;;;71.30;29.63;;;;;;;;;;5076250;28;20436;-77
2022/01/26 05:50:50;;;;;;;68.63;29.73;;;;;;;;;;5075185;28;20502;-77
2022/01/26 05:53:17;;;;;;;70.80;29.73;;;;;;;;;;5044529;28;20431;-77
2022/01/26 05:55:43;;;;;;;68.95;28.50;;;;;;;;;;5071036;28;20869;-78
2022/01/26 05:58:09;;;;;;;69.10;29.63;;;;;;;;;;5077015;28;20476;-78
2022/01/26 06:00:35;;;;;;;69.25;29.63;;;;;;;;;;5074255;28;20455;-78
2022/01/26 06:03:01;;;;;;;72.82;30.00;;;;;;;;;;5058963;28;20412;-78
2022/01/26 06:05:27;;;;;;;65.43;29.07;;;;;;;;;;5075631;28;21108;-78
2022/01/26 06:07:54;;;;;;;71.15;29.98;;;;;;;;;;5075895;28;20420;-78
2022/01/26 06:10:20;;;;;;;71.97;30.40;;;;;;;;;;5043903;28;20442;-78
2022/01/26 06:12:46;;;;;;;70.22;29.77;;;;;;;;;;5058748;28;20514;-78
2022/01/26 06:15:12;;;;;;;77.85;32.05;;;;;;;;;;5058807;28;20411;-78
2022/01/26 06:17:38;;;;;;;67.47;29.50;;;;;;;;;;5073942;28;20454;-77
2022/01/26 06:20:04;;;;;;;71.47;31.45;;;;;;;;;;5058262;28;20493;-77
2022/01/26 06:22:31;;;;;;;73.55;31.55;;;;;;;;;;5057221;28;20451;-77
2022/01/26 06:24:58;;;;;;;74.07;32.00;;;;;;;;;;5076178;28;20993;-77
2022/01/26 06:27:24;;;;;;;73.25;32.38;;;;;;;;;;5075999;28;20438;-77
2022/01/26 06:29:50;;;;;;;72.82;32.67;;;;;;;;;;5054348;28;20424;-77
2022/01/26 06:32:17;;;;;;;69.55;31.65;;;;;;;;;;5076470;28;20458;-78
2022/01/26 06:34:43;;;;;;;71.28;31.80;;;;;;;;;;5071784;28;20434;-77
2022/01/26 06:37:09;;;;;;;71.18;32.72;;;;;;;;;;5075879;28;20419;-78
2022/01/26 06:39:36;;;;;;;76.93;33.20;;;;;;;;;;5073934;28;20510;-78
2022/01/26 06:42:10;;;;;;;78.95;34.08;;;;;;;;;;5076124;28;20411;-78
2022/01/26 06:44:47;;;;;;;69.57;32.40;;;;;;;;;;5074912;28;20435;-79
2022/01/26 06:49:39;;;;;;;74.75;33.05;;;;;;;;;;5074889;28;20416;-78
2022/01/26 06:52:05;;;;;;;79.07;34.30;;;;;;;;;;5058770;28;20555;-78
2022/01/26 06:54:31;;;;;;;78.93;34.38;;;;;;;;;;5077637;28;20518;-77
2022/01/26 06:56:57;;;;;;;78.87;34.00;;;;;;;;;;5044550;28;20392;-77
2022/01/26 06:59:24;;;;;;;78.53;34.33;;;;;;;;;;5058521;28;20432;-78
2022/01/26 07:01:50;;;;;;;75.90;34.20;;;;;;;;;;5072338;28;20608;-78
2022/01/26 07:04:16;;;;;;;83.03;36.55;;;;;;;;;;5057731;28;20428;-77
2022/01/26 07:06:42;;;;;;;89.75;36.55;;;;;;;;;;5075274;28;20416;-78
2022/01/26 07:09:08;;;;;;;86.78;37.15;;;;;;;;;;5073817;28;20424;-78
2022/01/26 07:11:35;;;;;;;87.97;36.47;;;;;;;;;;5075062;28;20412;-78
2022/01/26 07:14:03;;;;;;;82.40;37.27;;;;;;;;;;5073741;28;20435;-79
2022/01/26 07:21:59;;;;;;;82.60;36.83;;;;;;;;;;5075035;28;20420;-78
2022/01/26 07:24:25;;;;;;;87.07;38.70;;;;;;;;;;5058077;28;20412;-78
2022/01/26 07:26:53;;;;;;;89.22;38.05;;;;;;;;;;5059588;28;20420;-78
2022/01/26 07:29:23;;;;;;;90.07;38.92;;;;;;;;;;5072665;28;20436;-78
2022/01/26 07:31:49;;;;;;;86.93;39.15;;;;;;;;;;5074011;28;20419;-78
2022/01/26 07:34:16;;;;;;;94.60;41.28;;;;;;;;;;5072240;28;20423;-77
2022/01/26 07:36:44;;;;;;;94.83;41.70;;;;;;;;;;5072974;28;21049;-77
2022/01/26 07:39:15;;;;;;;93.35;40.70;;;;;;;;;;5074187;28;20445;-77
2022/01/26 07:41:41;;;;;;;97.80;41.92;;;;;;;;;;5074545;28;20473;-75
2022/01/26 07:44:07;;;;;;;98.50;44.15;;;;;;;;;;5074914;28;20495;-75
2022/01/26 07:46:33;;;;;;;99.00;42.80;;;;;;;;;;5072810;28;20498;-75
2022/01/26 07:49:00;;;;;;;96.47;43.88;;;;;;;;;;5073266;28;20428;-75
2022/01/26 07:51:26;;;;;;;96.60;42.15;;;;;;;;;;5058472;28;20427;-75
2022/01/26 07:53:52;;;;;;;107.25;45.17;;;;;;;;;;5069493;28;20434;-75
2022/01/26 07:56:18;;;;;;;119.45;46.85;;;;;;;;;;5075331;28;21182;-74
2022/01/26 07:58:47;;;;;;;108.43;45.97;;;;;;;;;;5036665;28;20416;-76
2022/01/26 08:01:13;;;;;;;107.93;45.97;;;;;;;;;;5074717;28;20416;-77
2022/01/26 08:03:39;;;;;;;108.00;46.65;;;;;;;;;;5074007;28;20814;-76
2022/01/26 08:06:06;;;;;;;109.38;47.30;;;;;;;;;;5069484;28;20439;-76
2022/01/26 08:08:32;;;;;;;111.05;47.55;;;;;;;;;;5073415;28;20431;-77
2022/01/26 08:10:59;;;;;;;115.75;47.63;;;;;;;;;;5073473;28;20761;-77
2022/01/26 08:13:25;;;;;;;117.60;48.10;;;;;;;;;;5075800;28;20495;-77
2022/01/26 08:15:56;;;;;;;117.13;49.35;;;;;;;;;;5074713;28;20419;-77
2022/01/26 08:18:24;;;;;;;114.13;48.80;;;3.70;99.90;;;;;;5072634;28;20509;-76
2022/01/26 08:20:50;;;;;;;109.45;48.35;;;;;;;;;;5074560;28;20477;-76
2022/01/26 08:23:17;;;;;;;120.63;50.67;;;;;;;;;;5073060;28;20426;-77
2022/01/26 08:25:43;;;;;;;117.33;49.60;;;;;;;;;;5070056;28;20424;-78
2022/01/26 08:28:18;;;;;;;112.82;49.63;;;;;;;;;;5060360;28;20468;-77
2022/01/26 08:30:45;;;;;;;122.43;50.50;;;;;;;;;;5072997;28;20426;-76
2022/01/26 08:33:11;;;;;;;109.80;48.13;;;;;;;;;;5074295;28;20419;-76
2022/01/26 08:35:37;;;;;;;122.15;52.00;;;;;;;;;;5088969;28;20543;-77
2022/01/26 08:38:03;;;;;;;125.43;51.47;;;;;;;;;;5073788;28;20423;-77
2022/01/26 08:40:30;;;;;;;121.00;49.90;;;;;;;;;;5056277;28;20423;-77
2022/01/26 08:42:56;;;;;;;123.20;51.87;;;;;;;;;;5054815;28;20439;-77
2022/01/26 08:45:24;;;;;;;121.25;51.45;;;;;;;;;;5057345;28;20423;-77
2022/01/26 08:47:50;;;;;;;122.70;50.70;;;;;;;;;;5074480;28;20959;-77
2022/01/26 08:50:17;;;;;;;123.70;50.50;;;;;;;;;;5059723;28;20604;-77
2022/01/26 08:52:43;;;;;;;115.50;48.43;;;;;;;;;;5060484;28;20423;-77
2022/01/26 08:55:10;;;;;;;122.82;50.80;;;;;;;;;;5075843;28;20420;-77
2022/01/26 08:57:36;;;;;;;127.25;52.63;;;;;;;;;;5061340;28;20450;-77
2022/01/26 09:00:05;;;;;;;114.03;50.08;;;;;;;;;;5071833;28;20459;-75
2022/01/26 09:02:31;;;;;;;117.57;49.05;;;;;;;;;;5065633;28;20442;-75
2022/01/26 09:04:57;;;;;;;111.30;48.33;;;;;;;;;;5076943;28;20478;-77
2022/01/26 09:07:23;;;;;;;115.63;49.72;;;;;;;;;;5058217;28;20710;-76
2022/01/26 09:09:49;;;;;;;116.40;49.63;;;;;;;;;;5073075;28;20467;-76
2022/01/26 09:12:17;;;;;;;113.22;48.65;;;;;;;;;;5074666;28;20463;-76
2022/01/26 09:14:44;;;;;;;102.30;45.63;;;;;;;;;;5073288;28;20442;-76
2022/01/26 09:17:11;;;;;;;104.43;47.78;;;4.00;99.90;;;;;;5074622;28;20412;-75
2022/01/26 09:19:38;;;;;;;97.20;44.35;;;;;;;;;;5061811;28;20926;-76
2022/01/26 09:22:09;;;;;;;92.88;43.38;;;;;;;;;;5058408;28;20416;-77
2022/01/26 09:24:37;;;;;;;88.90;41.63;;;;;;;;;;5081841;28;20426;-76
2022/01/26 09:27:04;;;;;;;84.70;40.63;;;;;;;;;;5078266;28;20450;-76
2022/01/26 09:29:31;;;;;;;86.25;41.08;;;;;;;;;;5061953;28;20431;-74
2022/01/26 09:31:57;;;;;;;87.30;40.50;;;;;;;;;;5077524;28;20931;-76
2022/01/26 09:34:26;;;;;;;83.72;41.63;;;4.50;99.90;;;;;;5076071;28;20461;-76
2022/01/26 09:36:52;;;;;;;85.43;42.08;;;;;;;;;;5076856;28;20486;-74
2022/01/26 09:39:20;;;;;;;84.93;40.38;;;;;;;;;;5064758;28;20462;-76
2022/01/26 09:41:47;;;;;;;82.18;40.60;;;;;;;;;;5059640;28;20431;-75
2022/01/26 09:44:13;;;;;;;84.65;41.60;;;;;;;;;;5077911;28;20481;-77
2022/01/26 09:46:39;;;;;;;87.53;41.65;;;;;;;;;;5068680;28;20432;-76
2022/01/26 09:49:06;;;;;;;83.70;42.25;;;;;;;;;;5077001;28;20598;-76
2022/01/26 09:51:39;;;;;;;84.07;41.72;;;;;;;;;;5075116;28;20863;-77
2022/01/26 09:54:09;;;;;;;88.32;42.65;;;;;;;;;;5060393;28;20423;-77
2022/01/26 09:56:36;;;;;;;82.82;42.22;;;;;;;;;;5074639;28;20420;-76
2022/01/26 09:59:02;;;;;;;88.07;41.75;;;;;;;;;;5076889;28;20428;-75
2022/01/26 10:01:39;;;;;;;91.85;41.95;;;;;;;;;;5055959;28;20416;-76
2022/01/26 10:04:05;;;;;;;84.07;41.38;;;;;;;;;;5080735;28;20454;-76
2022/01/26 10:06:32;;;;;;;93.17;42.17;;;;;;;;;;5063156;28;20426;-77
2022/01/26 10:09:40;;;;;;;93.43;42.97;;;;;;;;;;5076630;28;20446;-76
2022/01/26 10:17:28;;;;;;;84.53;41.92;;;4.70;99.90;;;;;;5073607;28;20415;-76
2022/01/26 10:19:55;;;;;;;89.70;41.60;;;;;;;;;;5074686;28;20996;-75
2022/01/26 10:22:35;;;;;;;84.03;41.72;;;;;;;;;;5076757;28;20431;-76
2022/01/26 10:25:10;;;;;;;86.15;43.03;;;;;;;;;;5074564;28;20424;-76
2022/01/26 10:27:40;;;;;;;93.93;42.72;;;;;;;;;;5076163;28;20419;-76
2022/01/26 10:30:07;;;;;;;91.78;42.63;;;;;;;;;;5074908;28;20984;-76
2022/01/26 10:32:36;;;;;;;86.72;42.53;;;;;;;;;;5075868;28;20927;-76
2022/01/26 10:35:02;;;;;;;85.22;42.90;;;;;;;;;;5075604;28;20464;-76
2022/01/26 10:37:29;;;;;;;83.55;40.55;;;;;;;;;;5072122;28;20482;-76
2022/01/26 10:40:08;;;;;;;86.43;42.00;;;;;;;;;;5076333;28;20801;-76
2022/01/26 10:42:34;;;;;;;84.22;40.10;;;;;;;;;;5063731;28;20542;-77
2022/01/26 10:45:12;;;;;;;79.47;39.00;;;;;;;;;;5053339;28;20431;-76
2022/01/26 10:47:43;;;;;;;86.05;40.40;;;;;;;;;;5067578;28;21202;-76
2022/01/26 10:50:32;;;;;;;79.22;38.65;;;;;;;;;;5079248;28;20420;-77
2022/01/26 10:53:09;;;;;;;76.93;37.00;;;;;;;;;;5071942;28;20431;-77
2022/01/26 10:55:36;;;;;;;85.85;38.63;;;;;;;;;;5038485;28;20437;-77
2022/01/26 10:58:03;;;;;;;77.60;39.13;;;;;;;;;;5072419;28;20448;-76
2022/01/26 11:00:35;;;;;;;80.75;38.85;;;4.80;99.90;;;;;;5075289;28;20431;-75
2022/01/26 11:03:02;;;;;;;75.47;38.00;;;;;;;;;;5075615;28;20435;-76
2022/01/26 11:05:28;;;;;;;81.73;40.17;;;;;;;;;;5076520;28;20435;-77
2022/01/26 11:07:56;;;;;;;84.55;40.60;;;;;;;;;;5055674;28;20449;-77
2022/01/26 11:10:30;;;;;;;86.45;40.17;;;;;;;;;;5074843;28;20423;-76
2022/01/26 11:12:56;;;;;;;84.03;39.88;;;;;;;;;;5074433;28;20504;-76
2022/01/26 11:15:23;;;;;;;81.07;39.28;;;;;;;;;;5075179;28;20500;-74
2022/01/26 11:17:51;;;;;;;84.50;39.58;;;;;;;;;;5075216;28;20855;-76
2022/01/26 11:20:18;;;;;;;89.75;41.03;;;;;;;;;;5066408;28;20461;-77
2022/01/26 11:22:54;;;;;;;89.32;42.42;;;;;;;;;;5061521;28;20457;-76
2022/01/26 11:25:22;;;;;;;93.00;42.53;;;;;;;;;;5073568;28;20957;-76
2022/01/26 11:27:48;;;;;;;88.18;39.80;;;;;;;;;;5056892;28;20547;-77
2022/01/26 11:30:15;;;;;;;87.07;39.33;;;;;;;;;;5073576;28;20411;-77
2022/01/26 11:32:49;;;;;;;86.15;38.42;;;;;;;;;;5074122;28;20419;-75
2022/01/26 11:35:17;;;;;;;89.85;40.00;;;;;;;;;;5056383;28;20542;-74
2022/01/26 11:37:48;;;;;;;87.60;40.22;;;;;;;;;;5074608;28;20431;-76
2022/01/26 11:46:07;;;;;;;90.00;37.87;;;;;;;;;;5073808;28;21034;-77
2022/01/26 11:48:33;;;;;;;90.15;38.72;;;;;;;;;;5075463;28;20431;-78
2022/01/26 11:51:04;;;;;;;86.80;39.00;;;;;;;;;;5056776;28;20861;-77
2022/01/26 11:53:31;;;;;;;90.13;38.10;;;;;;;;;;5075198;28;20451;-75
2022/01/26 11:56:07;;;;;;;89.90;38.70;;;4.70;99.90;;;;;;5062829;28;20460;-77
2022/01/26 11:58:46;;;;;;;92.88;40.47;;;;;;;;;;5072404;28;20467;-77
2022/01/26 12:01:27;;;;;;;101.38;38.95;;;4.90;99.90;;;;;;5050167;28;20433;-76
2022/01/26 12:03:58;;;;;;;87.70;37.30;;;;;;;;;;5072165;28;20415;-76
2022/01/26 12:06:34;;;;;;;80.85;36.00;;;;;;;;;;5067017;28;20435;-76
2022/01/26 12:09:01;;;;;;;85.22;38.15;;;;;;;;;;5056582;28;20420;-77
2022/01/26 12:11:29;;;;;;;86.65;37.42;;;;;;;;;;5071735;28;20417;-76
2022/01/26 12:14:02;;;;;;;83.63;37.13;;;;;;;;;;5057875;28;20423;-76
2022/01/26 12:16:39;;;;;;;87.63;38.45;;;;;;;;;;5055890;28;20478;-76
2022/01/26 12:19:22;;;;;;;93.40;39.10;;;;;;;;;;5077983;28;21014;-76
2022/01/26 12:38:16;;;;;;;87.53;36.30;;;;;;;;;;5075830;28;20523;-76
2022/01/26 12:43:33;;;;;;;91.43;38.25;;;;;;;;;;5071075;28;20420;-76
2022/01/26 12:45:59;;;;;;;85.82;37.33;;;;;;;;;;5079992;28;20455;-76
2022/01/26 12:48:25;;;;;;;82.13;36.97;;;;;;;;;;5044966;28;21052;-75
2022/01/26 12:50:52;;;;;;;78.10;35.97;;;;;;;;;;5076448;28;20443;-75
2022/01/26 12:53:27;;;;;;;85.28;37.63;;;;;;;;;;5078664;28;20544;-75
2022/01/26 12:55:58;;;;;;;76.40;36.08;;;;;;;;;;5078305;28;20487;-75
2022/01/26 12:58:25;;;;;;;73.07;34.50;;;;;;;;;;5081268;28;20466;-75
2022/01/26 13:00:51;;;;;;;72.47;34.35;;;;;;;;;;5079708;28;20427;-75
2022/01/26 13:03:19;;;;;;;77.90;35.72;;;;;;;;;;5060940;28;20439;-76
2022/01/26 13:05:46;;;;;;;73.88;34.83;;;;;;;;;;5078173;28;20455;-75
2022/01/26 13:08:12;;;;;;;74.55;34.25;;;;;;;;;;5077209;28;20461;-76
2022/01/26 13:10:38;;;;;;;70.03;33.15;;;;;;;;;;5077345;28;21221;-75
2022/01/26 13:13:22;;;;;;;74.88;33.78;;;;;;;;;;5072869;28;20430;-76
2022/01/26 13:16:10;;;;;;;75.38;34.38;;;;;;;;;;5076771;28;20461;-76
2022/01/26 13:26:35;;;;;;;73.00;35.55;;;;;;;;;;5081600;28;20435;-74
2022/01/26 13:29:07;;;;;;;73.22;34.55;;;;;;;;;;5070170;28;20423;-74
2022/01/26 13:34:53;;;;;;;69.78;33.03;;;;;;;;;;5076138;28;20423;-75
2022/01/26 13:37:27;;;;;;;76.05;33.83;;;;;;;;;;5070643;28;20451;-74
2022/01/26 13:40:08;;;;;;;67.57;33.25;;;;;;;;;;5074863;28;20440;-75
2022/01/26 13:45:55;;;;;;;67.90;32.33;;;;;;;;;;5061467;28;20440;-74
2022/01/26 13:51:12;;;;;;;65.63;31.05;;;;;;;;;;5002377;28;20844;-76
2022/01/26 13:53:58;;;;;;;68.43;32.40;;;;;;;;;;5061636;28;20431;-76
2022/01/26 13:59:14;;;;;;;69.32;32.03;;;;;;;;;;5076273;28;20813;-76
2022/01/26 14:01:44;;;;;;;64.55;33.13;;;;;;;;;;5074469;28;20435;-76
2022/01/26 14:04:10;;;;;;;66.18;32.88;;;;;;;;;;5061492;28;20424;-76
2022/01/26 14:06:36;;;;;;;71.43;33.80;;;;;;;;;;5077108;28;20442;-76
2022/01/26 14:09:03;;;;;;;67.15;32.53;;;;;;;;;;5074972;28;20420;-77
2022/01/26 14:11:29;;;;;;;63.13;31.92;;;;;;;;;;5077627;28;20423;-76
2022/01/26 14:13:57;;;;;;;68.28;32.95;;;;;;;;;;5076272;28;20412;-76
2022/01/26 14:16:25;;;;;;;64.18;32.28;;;;;;;;;;5073600;28;20423;-76
2022/01/26 14:24:09;;;;;;;64.20;32.63;;;;;;;;;;5061992;28;20416;-77
2022/01/26 14:26:36;;;;;;;63.42;32.25;;;;;;;;;;5083223;28;20447;-77
2022/01/26 14:29:07;;;;;;;64.65;32.85;;;;;;;;;;5054859;28;20515;-75
2022/01/26 14:31:52;;;;;;;62.53;31.05;;;;;;;;;;5076013;28;20438;-76
2022/01/26 14:40:34;;;;;;;63.47;29.93;;;;;;;;;;5062166;28;20548;-77
2022/01/26 14:59:59;;;;;;;61.55;31.20;;;;;;;;;;5059349;28;21667;-77
2022/01/26 15:59:05;;;;;;;61.85;29.77;;;;;;;;;;5072401;28;20554;-78
2022/01/26 16:04:40;;;;;;;61.72;29.42;;;;;;;;;;5071655;28;20431;-77
2022/01/26 16:07:23;;;;;;;60.10;29.63;;;;;;;;;;5071520;28;20425;-79
2022/01/26 16:19:38;;;;;;;60.73;28.57;;;;;;;;;;5071036;28;20502;-77
2022/01/26 16:20:52;;;;;;;60.50;29.17;;;;;;;;;;5057862;28;20474;-77
2022/01/26 16:26:37;;;;;;;54.67;27.52;;;;;;;;;;5056573;28;20437;-77
2022/01/26 17:55:08;;;;;;;49.13;25.92;;;;;;;;;;5065098;28;20455;-78
2022/01/26 18:04:07;;;;;;;44.58;23.92;;;;;;;;;;5074479;28;20420;-79
2022/01/26 18:15:32;;;;;;;42.97;23.50;;;;;;;;;;5073892;28;20460;-79
2022/01/26 18:49:12;;;;;;;40.13;22.45;;;;;;;;;;5074716;28;20427;-81
2022/01/26 18:51:40;;;;;;;46.13;21.73;;;;;;;;;;5073331;28;20418;-81
2022/01/26 18:54:07;;;;;;;44.80;22.73;;;;;;;;;;5071591;28;20488;-81
2022/01/26 18:56:34;;;;;;;41.63;22.30;;;;;;;;;;5086736;28;20455;-80
2022/01/26 18:59:01;;;;;;;42.10;21.27;;;;;;;;;;5037464;28;20436;-81
2022/01/26 19:01:27;;;;;;;39.25;21.20;;;;;;;;;;5076006;28;20432;-81
2022/01/26 19:03:54;;;;;;;43.17;21.58;;;;;;;;;;5075528;28;20422;-80
2022/01/26 19:06:20;;;;;;;44.33;22.02;;;;;;;;;;5075735;28;20438;-81
2022/01/26 19:08:46;;;;;;;38.80;20.63;;;;;;;;;;5074207;28;20424;-81
2022/01/26 19:11:12;;;;;;;42.40;20.63;;;;;;;;;;5057046;28;20426;-81
2022/01/26 19:13:42;;;;;;;39.63;21.25;;;;;;;;;;5075342;28;20450;-81
2022/01/26 19:16:23;;;;;;;38.78;21.10;;;;;;;;;;5074495;28;20442;-81
2022/01/26 19:19:08;;;;;;;39.10;20.95;;;;;;;;;;5073310;28;20403;-81
2022/01/26 19:26:59;;;;;;;40.43;21.43;;;;;;;;;;5054944;28;20443;-82
2022/01/26 19:50:54;;;;;;;47.00;22.30;;;;;;;;;;5073666;28;20448;-81
2022/01/26 19:53:20;;;;;;;45.75;22.63;;;;;;;;;;5053166;28;20532;-81
2022/01/26 19:55:46;;;;;;;48.30;22.45;;;;;;;;;;5050577;28;20428;-81
2022/01/26 19:58:13;;;;;;;44.92;23.13;;;;;;;;;;5072374;28;20427;-80
2022/01/26 20:00:44;;;;;;;46.72;22.85;;;;;;;;;;5071592;28;20427;-80
2022/01/26 20:03:11;;;;;;;46.53;23.27;;;;;;;;;;5059463;28;20438;-81
2022/01/26 20:05:38;;;;;;;50.10;23.60;;;;;;;;;;5057586;28;20440;-81
2022/01/26 20:08:26;;;;;;;50.40;23.40;;;;;;;;;;5072731;28;20415;-81
2022/01/26 20:10:56;;;;;;;47.90;23.65;;;;;;;;;;5080327;28;20425;-80
2022/01/26 20:13:26;;;;;;;46.93;22.53;;;;;;;;;;5056551;28;20434;-79
2022/01/26 20:15:52;;;;;;;51.53;23.50;;;;;;;;;;5073795;28;20441;-79
2022/01/26 20:18:20;;;;;;;46.22;23.27;;;;;;;;;;5079065;28;20533;-79
2022/01/26 20:20:46;;;;;;;47.45;23.10;;;;;;;;;;5056358;28;20431;-80
2022/01/26 20:23:14;;;;;;;51.42;24.17;;;;;;;;;;5071717;28;20418;-80
2022/01/26 20:25:41;;;;;;;51.40;25.35;;;;;;;;;;5057466;28;20484;-79
2022/01/26 20:28:09;;;;;;;49.67;24.77;;;;;;;;;;5074464;28;20431;-79
2022/01/26 20:30:39;;;;;;;50.23;25.67;;;;;;;;;;5073536;28;20424;-79
2022/01/26 20:33:05;;;;;;;51.67;26.50;;;;;;;;;;5072017;28;20427;-79
2022/01/26 20:35:31;;;;;;;51.45;27.83;;;;;;;;;;5073944;28;20431;-79
2022/01/26 20:37:57;;;;;;;53.35;28.33;;;;;;;;;;5072452;28;20408;-79
2022/01/26 20:40:23;;;;;;;55.88;28.35;;;;;;;;;;5077789;28;20449;-79
2022/01/26 20:42:50;;;;;;;55.17;28.88;;;;;;;;;;5061641;28;20420;-79
2022/01/26 20:45:20;;;;;;;54.33;29.25;;;;;;;;;;5059660;28;20431;-79
2022/01/26 20:47:47;;;;;;;56.78;30.45;;;;;;;;;;5046118;28;20434;-79
2022/01/26 20:50:13;;;;;;;60.50;31.42;;;;;;;;;;5075190;28;20431;-79
2022/01/26 20:52:40;;;;;;;58.05;31.98;;;;;;;;;;5060795;28;20426;-79
2022/01/26 20:55:07;;;;;;;59.47;30.73;;;;;;;;;;5076500;28;21316;-80
2022/01/26 20:57:33;;;;;;;59.92;30.85;;;;;;;;;;5076498;28;20459;-79
2022/01/26 21:00:00;;;;;;;59.07;30.60;;;;;;;;;;5077736;28;20914;-79
2022/01/26 21:02:26;;;;;;;58.60;30.33;;;;;;;;;;5060370;28;20557;-79
2022/01/26 21:04:52;;;;;;;61.23;30.70;;;;;;;;;;5076243;28;20592;-79